sensor_id;sensor_type;location;lat;lon;timestamp;P1;durP1;ratioP1;P2;durP2;ratioP2
19812;SDS011;10066;48.108;11.448;2022-09-16T00:01:49;7.60;;;4.20;;
19812;SDS011;10066;48.108;11.448;2022-09-16T00:04:16;5.47;;;4.57;;
19812;SDS011;10066;48.108;11.448;2022-09-16T00:06:44;4.23;;;3.67;;
19812;SDS011;10066;48.108;11.448;2022-09-16T00:09:11;4.40;;;4.00;;
19812;SDS011;10066;48.108;11.448;2022-09-16T00:11:38;5.67;;;3.77;;
19812;SDS011;10066;48.108;11.448;2022-09-16T00:14:05;8.27;;;4.10;;
19812;SDS011;10066;48.108;11.448;2022-09-16T00:16:35;8.03;;;4.40;;
19812;SDS011;10066;48.108;11.448;2022-09-16T00:19:03;5.67;;;3.67;;
19812;SDS011;10066;48.108;11.448;2022-09-16T00:21:31;4.80;;;4.30;;
19812;SDS011;10066;48.108;11.448;2022-09-16T00:23:58;5.47;;;4.33;;
19812;SDS011;10066;48.108;11.448;2022-09-16T00:26:25;5.57;;;4.00;;
19812;SDS011;10066;48.108;11.448;2022-09-16T00:28:53;4.70;;;4.20;;
19812;SDS011;10066;48.108;11.448;2022-09-16T00:31:20;6.40;;;4.30;;
19812;SDS011;10066;48.108;11.448;2022-09-16T00:33:47;5.50;;;4.20;;
19812;SDS011;10066;48.108;11.448;2022-09-16T00:36:16;5.37;;;3.90;;
19812;SDS011;10066;48.108;11.448;2022-09-16T00:38:48;5.43;;;4.27;;
19812;SDS011;10066;48.108;11.448;2022-09-16T00:41:17;4.97;;;4.00;;
19812;SDS011;10066;48.108;11.448;2022-09-16T00:43:47;4.53;;;4.00;;
19812;SDS011;10066;48.108;11.448;2022-09-16T00:46:16;6.37;;;4.23;;
19812;SDS011;10066;48.108;11.448;2022-09-16T00:48:46;5.83;;;4.20;;
19812;SDS011;10066;48.108;11.448;2022-09-16T00:51:13;5.33;;;3.63;;
19812;SDS011;10066;48.108;11.448;2022-09-16T00:53:46;4.23;;;3.77;;
19812;SDS011;10066;48.108;11.448;2022-09-16T00:56:16;8.80;;;4.17;;
19812;SDS011;10066;48.108;11.448;2022-09-16T00:58:48;5.33;;;3.87;;
19812;SDS011;10066;48.108;11.448;2022-09-16T01:01:18;4.60;;;3.70;;
19812;SDS011;10066;48.108;11.448;2022-09-16T01:03:47;5.60;;;3.97;;
19812;SDS011;10066;48.108;11.448;2022-09-16T01:06:18;5.67;;;3.70;;
19812;SDS011;10066;48.108;11.448;2022-09-16T01:08:46;8.07;;;3.97;;
19812;SDS011;10066;48.108;11.448;2022-09-16T01:11:15;6.20;;;3.27;;
19812;SDS011;10066;48.108;11.448;2022-09-16T01:13:42;5.77;;;3.80;;
19812;SDS011;10066;48.108;11.448;2022-09-16T01:16:13;6.60;;;4.00;;
19812;SDS011;10066;48.108;11.448;2022-09-16T01:18:45;4.23;;;3.83;;
19812;SDS011;10066;48.108;11.448;2022-09-16T01:21:21;8.97;;;3.70;;
19812;SDS011;10066;48.108;11.448;2022-09-16T01:24:02;3.83;;;3.47;;
19812;SDS011;10066;48.108;11.448;2022-09-16T01:26:57;12.50;;;4.60;;
19812;SDS011;10066;48.108;11.448;2022-09-16T01:29:51;5.47;;;3.57;;
19812;SDS011;10066;48.108;11.448;2022-09-16T01:32:43;6.17;;;3.87;;
19812;SDS011;10066;48.108;11.448;2022-09-16T01:35:19;5.33;;;3.70;;
19812;SDS011;10066;48.108;11.448;2022-09-16T01:37:55;5.13;;;3.93;;
19812;SDS011;10066;48.108;11.448;2022-09-16T01:40:31;4.67;;;3.90;;
19812;SDS011;10066;48.108;11.448;2022-09-16T01:43:06;4.80;;;3.87;;
19812;SDS011;10066;48.108;11.448;2022-09-16T01:45:41;4.80;;;3.63;;
19812;SDS011;10066;48.108;11.448;2022-09-16T01:48:12;5.07;;;3.93;;
19812;SDS011;10066;48.108;11.448;2022-09-16T01:50:47;5.77;;;4.17;;
19812;SDS011;10066;48.108;11.448;2022-09-16T01:53:26;6.47;;;4.90;;
19812;SDS011;10066;48.108;11.448;2022-09-16T01:55:58;6.43;;;4.20;;
19812;SDS011;10066;48.108;11.448;2022-09-16T01:58:32;16.53;;;4.57;;
19812;SDS011;10066;48.108;11.448;2022-09-16T02:01:05;6.33;;;4.47;;
19812;SDS011;10066;48.108;11.448;2022-09-16T02:06:07;6.13;;;4.77;;
19812;SDS011;10066;48.108;11.448;2022-09-16T02:08:39;6.27;;;5.20;;
19812;SDS011;10066;48.108;11.448;2022-09-16T02:11:09;8.40;;;5.27;;
19812;SDS011;10066;48.108;11.448;2022-09-16T02:13:40;5.27;;;4.53;;
19812;SDS011;10066;48.108;11.448;2022-09-16T02:16:11;6.20;;;4.53;;
19812;SDS011;10066;48.108;11.448;2022-09-16T02:18:42;6.60;;;4.17;;
19812;SDS011;10066;48.108;11.448;2022-09-16T02:21:16;6.63;;;4.57;;
19812;SDS011;10066;48.108;11.448;2022-09-16T02:23:46;6.43;;;4.77;;
19812;SDS011;10066;48.108;11.448;2022-09-16T02:26:17;6.00;;;4.27;;
19812;SDS011;10066;48.108;11.448;2022-09-16T02:28:49;5.97;;;4.13;;
19812;SDS011;10066;48.108;11.448;2022-09-16T02:31:19;6.00;;;3.97;;
19812;SDS011;10066;48.108;11.448;2022-09-16T02:33:51;4.27;;;3.30;;
19812;SDS011;10066;48.108;11.448;2022-09-16T02:36:22;4.30;;;3.57;;
19812;SDS011;10066;48.108;11.448;2022-09-16T02:38:52;4.03;;;3.40;;
19812;SDS011;10066;48.108;11.448;2022-09-16T02:41:22;4.10;;;3.40;;
19812;SDS011;10066;48.108;11.448;2022-09-16T02:43:49;4.83;;;3.57;;
19812;SDS011;10066;48.108;11.448;2022-09-16T02:46:18;4.97;;;3.50;;
19812;SDS011;10066;48.108;11.448;2022-09-16T02:48:55;6.70;;;3.50;;
19812;SDS011;10066;48.108;11.448;2022-09-16T02:51:31;5.23;;;4.03;;
19812;SDS011;10066;48.108;11.448;2022-09-16T02:54:08;5.13;;;3.33;;
19812;SDS011;10066;48.108;11.448;2022-09-16T02:56:38;4.30;;;3.57;;
19812;SDS011;10066;48.108;11.448;2022-09-16T02:59:08;6.10;;;3.60;;
19812;SDS011;10066;48.108;11.448;2022-09-16T03:01:38;3.50;;;3.20;;
19812;SDS011;10066;48.108;11.448;2022-09-16T03:04:06;5.07;;;3.83;;
19812;SDS011;10066;48.108;11.448;2022-09-16T03:06:35;4.03;;;3.50;;
19812;SDS011;10066;48.108;11.448;2022-09-16T03:09:03;4.20;;;3.80;;
19812;SDS011;10066;48.108;11.448;2022-09-16T03:11:38;4.17;;;3.40;;
19812;SDS011;10066;48.108;11.448;2022-09-16T03:14:34;7.50;;;3.93;;
19812;SDS011;10066;48.108;11.448;2022-09-16T03:17:15;5.30;;;4.00;;
19812;SDS011;10066;48.108;11.448;2022-09-16T03:19:55;5.57;;;3.40;;
19812;SDS011;10066;48.108;11.448;2022-09-16T03:22:32;6.20;;;3.40;;
19812;SDS011;10066;48.108;11.448;2022-09-16T03:25:09;4.37;;;3.30;;
19812;SDS011;10066;48.108;11.448;2022-09-16T03:27:44;5.73;;;3.80;;
19812;SDS011;10066;48.108;11.448;2022-09-16T03:30:16;5.60;;;3.60;;
19812;SDS011;10066;48.108;11.448;2022-09-16T03:32:45;6.07;;;3.40;;
19812;SDS011;10066;48.108;11.448;2022-09-16T03:35:18;5.90;;;3.47;;
19812;SDS011;10066;48.108;11.448;2022-09-16T03:37:51;4.57;;;3.67;;
19812;SDS011;10066;48.108;11.448;2022-09-16T03:40:20;4.73;;;3.63;;
19812;SDS011;10066;48.108;11.448;2022-09-16T03:42:48;8.50;;;4.90;;
19812;SDS011;10066;48.108;11.448;2022-09-16T03:45:16;6.17;;;3.93;;
19812;SDS011;10066;48.108;11.448;2022-09-16T03:47:45;5.67;;;4.30;;
19812;SDS011;10066;48.108;11.448;2022-09-16T03:50:15;5.20;;;4.10;;
19812;SDS011;10066;48.108;11.448;2022-09-16T03:52:43;5.90;;;4.03;;
19812;SDS011;10066;48.108;11.448;2022-09-16T03:55:14;6.83;;;4.10;;
19812;SDS011;10066;48.108;11.448;2022-09-16T03:57:41;6.10;;;4.03;;
19812;SDS011;10066;48.108;11.448;2022-09-16T04:00:08;6.77;;;4.10;;
19812;SDS011;10066;48.108;11.448;2022-09-16T04:02:40;4.17;;;3.43;;
19812;SDS011;10066;48.108;11.448;2022-09-16T04:05:07;6.37;;;4.80;;
19812;SDS011;10066;48.108;11.448;2022-09-16T04:07:34;6.53;;;3.87;;
19812;SDS011;10066;48.108;11.448;2022-09-16T04:10:02;6.20;;;4.33;;
19812;SDS011;10066;48.108;11.448;2022-09-16T04:12:32;6.43;;;4.10;;
19812;SDS011;10066;48.108;11.448;2022-09-16T04:14:59;8.40;;;4.40;;
19812;SDS011;10066;48.108;11.448;2022-09-16T04:17:26;5.93;;;4.30;;
19812;SDS011;10066;48.108;11.448;2022-09-16T04:19:56;5.97;;;4.60;;
19812;SDS011;10066;48.108;11.448;2022-09-16T04:22:24;7.03;;;4.83;;
19812;SDS011;10066;48.108;11.448;2022-09-16T04:24:53;5.57;;;4.70;;
19812;SDS011;10066;48.108;11.448;2022-09-16T04:27:20;4.23;;;3.83;;
19812;SDS011;10066;48.108;11.448;2022-09-16T04:29:49;6.00;;;4.97;;
19812;SDS011;10066;48.108;11.448;2022-09-16T04:32:16;7.00;;;4.80;;
19812;SDS011;10066;48.108;11.448;2022-09-16T04:34:44;6.43;;;4.67;;
19812;SDS011;10066;48.108;11.448;2022-09-16T04:37:11;7.90;;;4.53;;
19812;SDS011;10066;48.108;11.448;2022-09-16T04:39:39;5.57;;;4.93;;
19812;SDS011;10066;48.108;11.448;2022-09-16T04:42:06;5.90;;;4.77;;
19812;SDS011;10066;48.108;11.448;2022-09-16T04:44:35;8.80;;;5.03;;
19812;SDS011;10066;48.108;11.448;2022-09-16T04:47:04;7.03;;;5.17;;
19812;SDS011;10066;48.108;11.448;2022-09-16T04:49:32;7.37;;;4.70;;
19812;SDS011;10066;48.108;11.448;2022-09-16T04:51:59;6.43;;;5.33;;
19812;SDS011;10066;48.108;11.448;2022-09-16T04:54:26;6.73;;;5.07;;
19812;SDS011;10066;48.108;11.448;2022-09-16T04:56:53;7.40;;;5.23;;
19812;SDS011;10066;48.108;11.448;2022-09-16T04:59:21;6.00;;;5.00;;
19812;SDS011;10066;48.108;11.448;2022-09-16T05:01:48;5.67;;;4.90;;
19812;SDS011;10066;48.108;11.448;2022-09-16T05:04:17;6.20;;;4.90;;
19812;SDS011;10066;48.108;11.448;2022-09-16T05:06:44;8.17;;;5.13;;
19812;SDS011;10066;48.108;11.448;2022-09-16T05:09:11;7.70;;;4.60;;
19812;SDS011;10066;48.108;11.448;2022-09-16T05:11:39;8.20;;;5.73;;
19812;SDS011;10066;48.108;11.448;2022-09-16T05:14:07;7.67;;;5.60;;
19812;SDS011;10066;48.108;11.448;2022-09-16T05:16:37;9.47;;;5.33;;
19812;SDS011;10066;48.108;11.448;2022-09-16T05:19:04;6.13;;;4.83;;
19812;SDS011;10066;48.108;11.448;2022-09-16T05:21:33;8.57;;;5.13;;
19812;SDS011;10066;48.108;11.448;2022-09-16T05:24:02;10.13;;;6.10;;
19812;SDS011;10066;48.108;11.448;2022-09-16T05:26:32;10.47;;;5.33;;
19812;SDS011;10066;48.108;11.448;2022-09-16T05:29:00;8.50;;;5.40;;
19812;SDS011;10066;48.108;11.448;2022-09-16T05:31:29;7.30;;;5.30;;
19812;SDS011;10066;48.108;11.448;2022-09-16T05:33:58;7.70;;;5.07;;
19812;SDS011;10066;48.108;11.448;2022-09-16T05:36:27;10.80;;;5.67;;
19812;SDS011;10066;48.108;11.448;2022-09-16T05:38:57;8.67;;;5.63;;
19812;SDS011;10066;48.108;11.448;2022-09-16T05:41:24;10.10;;;5.73;;
19812;SDS011;10066;48.108;11.448;2022-09-16T05:43:51;7.77;;;6.20;;
19812;SDS011;10066;48.108;11.448;2022-09-16T05:46:21;7.23;;;4.90;;
19812;SDS011;10066;48.108;11.448;2022-09-16T05:48:50;8.87;;;6.13;;
19812;SDS011;10066;48.108;11.448;2022-09-16T05:51:17;9.77;;;5.60;;
19812;SDS011;10066;48.108;11.448;2022-09-16T05:53:46;10.77;;;5.87;;
19812;SDS011;10066;48.108;11.448;2022-09-16T05:56:17;13.60;;;6.23;;
19812;SDS011;10066;48.108;11.448;2022-09-16T05:58:45;6.97;;;5.93;;
19812;SDS011;10066;48.108;11.448;2022-09-16T06:01:14;9.70;;;6.07;;
19812;SDS011;10066;48.108;11.448;2022-09-16T06:03:42;9.87;;;5.80;;
19812;SDS011;10066;48.108;11.448;2022-09-16T06:06:11;10.40;;;5.43;;
19812;SDS011;10066;48.108;11.448;2022-09-16T06:08:41;9.97;;;5.50;;
19812;SDS011;10066;48.108;11.448;2022-09-16T06:11:09;6.33;;;4.97;;
19812;SDS011;10066;48.108;11.448;2022-09-16T06:13:39;7.67;;;5.00;;
19812;SDS011;10066;48.108;11.448;2022-09-16T06:16:07;6.20;;;5.60;;
19812;SDS011;10066;48.108;11.448;2022-09-16T06:18:35;9.83;;;6.47;;
19812;SDS011;10066;48.108;11.448;2022-09-16T06:21:03;10.07;;;6.20;;
19812;SDS011;10066;48.108;11.448;2022-09-16T06:23:32;8.23;;;6.20;;
19812;SDS011;10066;48.108;11.448;2022-09-16T06:25:59;8.40;;;6.47;;
19812;SDS011;10066;48.108;11.448;2022-09-16T06:28:29;6.80;;;5.43;;
19812;SDS011;10066;48.108;11.448;2022-09-16T06:31:01;10.00;;;5.60;;
19812;SDS011;10066;48.108;11.448;2022-09-16T06:33:30;10.87;;;5.80;;
19812;SDS011;10066;48.108;11.448;2022-09-16T06:36:01;7.47;;;5.07;;
19812;SDS011;10066;48.108;11.448;2022-09-16T06:38:29;10.23;;;5.00;;
19812;SDS011;10066;48.108;11.448;2022-09-16T06:40:57;9.30;;;5.60;;
19812;SDS011;10066;48.108;11.448;2022-09-16T06:43:25;8.00;;;5.13;;
19812;SDS011;10066;48.108;11.448;2022-09-16T06:45:55;7.30;;;5.37;;
19812;SDS011;10066;48.108;11.448;2022-09-16T06:48:25;9.50;;;5.37;;
19812;SDS011;10066;48.108;11.448;2022-09-16T06:50:58;9.63;;;6.00;;
19812;SDS011;10066;48.108;11.448;2022-09-16T06:53:26;12.10;;;6.10;;
19812;SDS011;10066;48.108;11.448;2022-09-16T06:55:54;9.63;;;6.00;;
19812;SDS011;10066;48.108;11.448;2022-09-16T06:58:25;7.93;;;6.40;;
19812;SDS011;10066;48.108;11.448;2022-09-16T07:00:53;10.30;;;6.67;;
19812;SDS011;10066;48.108;11.448;2022-09-16T07:03:20;12.67;;;7.03;;
19812;SDS011;10066;48.108;11.448;2022-09-16T07:05:55;8.13;;;6.63;;
19812;SDS011;10066;48.108;11.448;2022-09-16T07:08:24;9.60;;;6.87;;
19812;SDS011;10066;48.108;11.448;2022-09-16T07:10:55;10.40;;;6.63;;
19812;SDS011;10066;48.108;11.448;2022-09-16T07:13:23;10.47;;;6.90;;
19812;SDS011;10066;48.108;11.448;2022-09-16T07:15:50;9.20;;;7.27;;
19812;SDS011;10066;48.108;11.448;2022-09-16T07:18:17;10.83;;;7.10;;
19812;SDS011;10066;48.108;11.448;2022-09-16T07:20:45;11.53;;;6.80;;
19812;SDS011;10066;48.108;11.448;2022-09-16T07:23:13;9.20;;;7.60;;
19812;SDS011;10066;48.108;11.448;2022-09-16T07:25:40;9.87;;;7.23;;
19812;SDS011;10066;48.108;11.448;2022-09-16T07:28:07;10.47;;;7.43;;
19812;SDS011;10066;48.108;11.448;2022-09-16T07:30:34;10.90;;;7.60;;
19812;SDS011;10066;48.108;11.448;2022-09-16T07:33:02;12.67;;;7.47;;
19812;SDS011;10066;48.108;11.448;2022-09-16T07:35:29;10.53;;;7.67;;
19812;SDS011;10066;48.108;11.448;2022-09-16T07:37:56;11.07;;;7.43;;
19812;SDS011;10066;48.108;11.448;2022-09-16T07:40:27;9.33;;;7.70;;
19812;SDS011;10066;48.108;11.448;2022-09-16T07:42:54;8.90;;;7.43;;
19812;SDS011;10066;48.108;11.448;2022-09-16T07:45:21;11.27;;;7.33;;
19812;SDS011;10066;48.108;11.448;2022-09-16T07:47:48;11.30;;;7.37;;
19812;SDS011;10066;48.108;11.448;2022-09-16T07:50:15;10.47;;;7.10;;
19812;SDS011;10066;48.108;11.448;2022-09-16T07:52:43;9.97;;;7.13;;
19812;SDS011;10066;48.108;11.448;2022-09-16T07:55:11;9.63;;;6.90;;
19812;SDS011;10066;48.108;11.448;2022-09-16T07:57:42;7.70;;;6.90;;
19812;SDS011;10066;48.108;11.448;2022-09-16T08:00:10;11.13;;;6.77;;
19812;SDS011;10066;48.108;11.448;2022-09-16T08:02:40;11.37;;;7.10;;
19812;SDS011;10066;48.108;11.448;2022-09-16T08:05:07;10.17;;;7.20;;
19812;SDS011;10066;48.108;11.448;2022-09-16T08:07:35;10.37;;;6.83;;
19812;SDS011;10066;48.108;11.448;2022-09-16T08:10:03;10.80;;;7.80;;
19812;SDS011;10066;48.108;11.448;2022-09-16T08:12:30;9.47;;;7.60;;
19812;SDS011;10066;48.108;11.448;2022-09-16T08:15:00;9.70;;;7.10;;
19812;SDS011;10066;48.108;11.448;2022-09-16T08:17:27;11.10;;;6.83;;
19812;SDS011;10066;48.108;11.448;2022-09-16T08:19:54;9.67;;;6.70;;
19812;SDS011;10066;48.108;11.448;2022-09-16T08:22:21;14.33;;;7.50;;
19812;SDS011;10066;48.108;11.448;2022-09-16T08:24:49;10.43;;;6.67;;
19812;SDS011;10066;48.108;11.448;2022-09-16T08:27:18;9.07;;;6.67;;
19812;SDS011;10066;48.108;11.448;2022-09-16T08:29:45;12.60;;;6.97;;
19812;SDS011;10066;48.108;11.448;2022-09-16T08:32:14;8.93;;;6.27;;
19812;SDS011;10066;48.108;11.448;2022-09-16T08:34:42;8.50;;;6.83;;
19812;SDS011;10066;48.108;11.448;2022-09-16T08:37:09;7.20;;;6.03;;
19812;SDS011;10066;48.108;11.448;2022-09-16T08:39:36;9.43;;;6.30;;
19812;SDS011;10066;48.108;11.448;2022-09-16T08:42:07;8.90;;;6.17;;
19812;SDS011;10066;48.108;11.448;2022-09-16T08:44:52;9.37;;;6.60;;
19812;SDS011;10066;48.108;11.448;2022-09-16T08:47:32;9.13;;;6.23;;
19812;SDS011;10066;48.108;11.448;2022-09-16T08:50:08;7.83;;;5.70;;
19812;SDS011;10066;48.108;11.448;2022-09-16T08:52:40;9.13;;;6.77;;
19812;SDS011;10066;48.108;11.448;2022-09-16T08:55:10;8.63;;;5.80;;
19812;SDS011;10066;48.108;11.448;2022-09-16T08:57:42;8.43;;;6.33;;
19812;SDS011;10066;48.108;11.448;2022-09-16T09:00:16;9.10;;;6.43;;
19812;SDS011;10066;48.108;11.448;2022-09-16T09:02:47;7.77;;;6.10;;
19812;SDS011;10066;48.108;11.448;2022-09-16T09:05:19;8.03;;;6.07;;
19812;SDS011;10066;48.108;11.448;2022-09-16T09:07:54;8.33;;;5.83;;
19812;SDS011;10066;48.108;11.448;2022-09-16T09:10:35;10.90;;;5.93;;
19812;SDS011;10066;48.108;11.448;2022-09-16T09:13:11;7.53;;;5.90;;
19812;SDS011;10066;48.108;11.448;2022-09-16T09:15:47;7.53;;;5.93;;
19812;SDS011;10066;48.108;11.448;2022-09-16T09:18:31;8.87;;;5.90;;
19812;SDS011;10066;48.108;11.448;2022-09-16T09:21:11;9.30;;;5.87;;
19812;SDS011;10066;48.108;11.448;2022-09-16T09:23:50;12.77;;;5.50;;
19812;SDS011;10066;48.108;11.448;2022-09-16T09:26:32;6.70;;;5.40;;
19812;SDS011;10066;48.108;11.448;2022-09-16T09:29:09;9.43;;;5.43;;
19812;SDS011;10066;48.108;11.448;2022-09-16T09:31:49;9.40;;;5.90;;
19812;SDS011;10066;48.108;11.448;2022-09-16T09:34:29;8.17;;;5.53;;
19812;SDS011;10066;48.108;11.448;2022-09-16T09:37:10;11.00;;;6.10;;
19812;SDS011;10066;48.108;11.448;2022-09-16T09:39:51;8.07;;;5.87;;
19812;SDS011;10066;48.108;11.448;2022-09-16T09:42:29;7.13;;;5.57;;
19812;SDS011;10066;48.108;11.448;2022-09-16T09:45:01;13.03;;;6.67;;
19812;SDS011;10066;48.108;11.448;2022-09-16T09:47:31;8.67;;;6.30;;
19812;SDS011;10066;48.108;11.448;2022-09-16T09:52:52;14.00;;;7.00;;
19812;SDS011;10066;48.108;11.448;2022-09-16T09:55:26;10.13;;;6.20;;
19812;SDS011;10066;48.108;11.448;2022-09-16T09:58:03;9.57;;;6.77;;
19812;SDS011;10066;48.108;11.448;2022-09-16T10:00:45;12.03;;;6.60;;
19812;SDS011;10066;48.108;11.448;2022-09-16T10:03:13;10.03;;;7.23;;
19812;SDS011;10066;48.108;11.448;2022-09-16T10:05:43;8.07;;;6.53;;
19812;SDS011;10066;48.108;11.448;2022-09-16T10:08:13;8.43;;;6.63;;
19812;SDS011;10066;48.108;11.448;2022-09-16T10:10:47;9.93;;;7.10;;
19812;SDS011;10066;48.108;11.448;2022-09-16T10:13:16;11.60;;;7.50;;
19812;SDS011;10066;48.108;11.448;2022-09-16T10:15:44;11.40;;;7.23;;
19812;SDS011;10066;48.108;11.448;2022-09-16T10:18:12;8.07;;;7.03;;
19812;SDS011;10066;48.108;11.448;2022-09-16T10:20:55;12.33;;;7.53;;
19812;SDS011;10066;48.108;11.448;2022-09-16T10:23:26;9.47;;;7.03;;
19812;SDS011;10066;48.108;11.448;2022-09-16T10:26:13;7.87;;;6.93;;
19812;SDS011;10066;48.108;11.448;2022-09-16T10:28:54;9.10;;;7.07;;
19812;SDS011;10066;48.108;11.448;2022-09-16T10:31:24;11.60;;;8.10;;
19812;SDS011;10066;48.108;11.448;2022-09-16T10:33:54;10.50;;;8.23;;
19812;SDS011;10066;48.108;11.448;2022-09-16T10:36:32;9.57;;;7.50;;
19812;SDS011;10066;48.108;11.448;2022-09-16T10:39:00;15.07;;;8.50;;
19812;SDS011;10066;48.108;11.448;2022-09-16T10:41:29;14.17;;;8.60;;
19812;SDS011;10066;48.108;11.448;2022-09-16T10:44:00;11.20;;;8.87;;
19812;SDS011;10066;48.108;11.448;2022-09-16T10:46:32;10.23;;;8.20;;
19812;SDS011;10066;48.108;11.448;2022-09-16T10:49:00;13.73;;;9.10;;
19812;SDS011;10066;48.108;11.448;2022-09-16T10:51:37;10.63;;;9.10;;
19812;SDS011;10066;48.108;11.448;2022-09-16T10:54:04;15.37;;;9.90;;
19812;SDS011;10066;48.108;11.448;2022-09-16T10:56:32;13.43;;;9.60;;
19812;SDS011;10066;48.108;11.448;2022-09-16T10:59:11;15.00;;;10.13;;
19812;SDS011;10066;48.108;11.448;2022-09-16T11:01:42;13.80;;;9.77;;
19812;SDS011;10066;48.108;11.448;2022-09-16T11:04:20;13.07;;;9.50;;
19812;SDS011;10066;48.108;11.448;2022-09-16T11:07:19;11.43;;;9.07;;
19812;SDS011;10066;48.108;11.448;2022-09-16T11:09:54;13.00;;;9.87;;
19812;SDS011;10066;48.108;11.448;2022-09-16T11:12:41;8.47;;;7.53;;
19812;SDS011;10066;48.108;11.448;2022-09-16T11:15:31;8.80;;;6.10;;
19812;SDS011;10066;48.108;11.448;2022-09-16T11:18:12;10.83;;;6.57;;
19812;SDS011;10066;48.108;11.448;2022-09-16T11:20:57;9.47;;;5.17;;
19812;SDS011;10066;48.108;11.448;2022-09-16T11:23:48;4.35;;;3.95;;
19812;SDS011;10066;48.108;11.448;2022-09-16T11:26:38;8.33;;;5.23;;
19812;SDS011;10066;48.108;11.448;2022-09-16T11:29:20;4.47;;;3.30;;
19812;SDS011;10066;48.108;11.448;2022-09-16T11:32:04;8.63;;;3.70;;
19812;SDS011;10066;48.108;11.448;2022-09-16T11:34:42;8.10;;;5.10;;
19812;SDS011;10066;48.108;11.448;2022-09-16T11:37:23;6.93;;;4.03;;
19812;SDS011;10066;48.108;11.448;2022-09-16T11:39:59;7.03;;;5.43;;
19812;SDS011;10066;48.108;11.448;2022-09-16T11:42:36;11.70;;;6.07;;
19812;SDS011;10066;48.108;11.448;2022-09-16T11:45:14;8.83;;;5.60;;
19812;SDS011;10066;48.108;11.448;2022-09-16T11:48:01;9.93;;;6.10;;
19812;SDS011;10066;48.108;11.448;2022-09-16T11:50:43;6.33;;;5.20;;
19812;SDS011;10066;48.108;11.448;2022-09-16T11:53:22;4.13;;;2.70;;
19812;SDS011;10066;48.108;11.448;2022-09-16T11:56:03;10.00;;;4.20;;
19812;SDS011;10066;48.108;11.448;2022-09-16T11:58:35;4.30;;;3.13;;
19812;SDS011;10066;48.108;11.448;2022-09-16T12:01:11;7.10;;;4.07;;
19812;SDS011;10066;48.108;11.448;2022-09-16T12:03:45;8.03;;;4.37;;
19812;SDS011;10066;48.108;11.448;2022-09-16T12:06:14;6.40;;;4.50;;
19812;SDS011;10066;48.108;11.448;2022-09-16T12:08:50;7.90;;;4.97;;
19812;SDS011;10066;48.108;11.448;2022-09-16T12:11:23;8.97;;;3.77;;
19812;SDS011;10066;48.108;11.448;2022-09-16T12:13:59;5.73;;;4.43;;
19812;SDS011;10066;48.108;11.448;2022-09-16T12:16:33;7.80;;;5.10;;
19812;SDS011;10066;48.108;11.448;2022-09-16T12:19:08;4.73;;;3.90;;
19812;SDS011;10066;48.108;11.448;2022-09-16T12:21:41;13.63;;;6.80;;
19812;SDS011;10066;48.108;11.448;2022-09-16T12:24:13;4.27;;;2.77;;
19812;SDS011;10066;48.108;11.448;2022-09-16T12:26:49;4.57;;;3.90;;
19812;SDS011;10066;48.108;11.448;2022-09-16T12:29:22;6.87;;;4.93;;
19812;SDS011;10066;48.108;11.448;2022-09-16T12:31:57;7.90;;;4.37;;
19812;SDS011;10066;48.108;11.448;2022-09-16T12:34:30;6.23;;;4.83;;
19812;SDS011;10066;48.108;11.448;2022-09-16T12:37:03;8.33;;;5.23;;
19812;SDS011;10066;48.108;11.448;2022-09-16T12:39:42;9.33;;;5.30;;
19812;SDS011;10066;48.108;11.448;2022-09-16T12:42:17;8.27;;;5.83;;
19812;SDS011;10066;48.108;11.448;2022-09-16T12:45:19;3.77;;;3.17;;
19812;SDS011;10066;48.108;11.448;2022-09-16T12:48:12;9.97;;;6.13;;
19812;SDS011;10066;48.108;11.448;2022-09-16T12:50:52;6.97;;;5.90;;
19812;SDS011;10066;48.108;11.448;2022-09-16T12:53:45;6.67;;;5.00;;
19812;SDS011;10066;48.108;11.448;2022-09-16T12:56:29;3.63;;;3.03;;
19812;SDS011;10066;48.108;11.448;2022-09-16T12:59:26;5.23;;;4.20;;
19812;SDS011;10066;48.108;11.448;2022-09-16T13:02:14;8.17;;;4.07;;
19812;SDS011;10066;48.108;11.448;2022-09-16T13:04:43;7.97;;;4.17;;
19812;SDS011;10066;48.108;11.448;2022-09-16T13:07:18;7.33;;;4.33;;
19812;SDS011;10066;48.108;11.448;2022-09-16T13:09:48;3.83;;;2.93;;
19812;SDS011;10066;48.108;11.448;2022-09-16T13:12:25;4.23;;;3.37;;
19812;SDS011;10066;48.108;11.448;2022-09-16T13:14:56;6.23;;;3.03;;
19812;SDS011;10066;48.108;11.448;2022-09-16T13:17:29;3.93;;;3.10;;
19812;SDS011;10066;48.108;11.448;2022-09-16T13:19:59;3.20;;;2.47;;
19812;SDS011;10066;48.108;11.448;2022-09-16T13:22:33;5.80;;;3.07;;
19812;SDS011;10066;48.108;11.448;2022-09-16T13:25:07;3.63;;;3.20;;
19812;SDS011;10066;48.108;11.448;2022-09-16T13:27:37;5.33;;;3.73;;
19812;SDS011;10066;48.108;11.448;2022-09-16T13:30:15;5.80;;;3.10;;
19812;SDS011;10066;48.108;11.448;2022-09-16T13:32:57;4.17;;;3.30;;
19812;SDS011;10066;48.108;11.448;2022-09-16T13:35:39;4.13;;;3.00;;
19812;SDS011;10066;48.108;11.448;2022-09-16T13:38:19;4.33;;;3.23;;
19812;SDS011;10066;48.108;11.448;2022-09-16T13:40:53;5.43;;;3.63;;
19812;SDS011;10066;48.108;11.448;2022-09-16T13:43:29;5.17;;;3.10;;
19812;SDS011;10066;48.108;11.448;2022-09-16T13:46:25;3.50;;;3.20;;
19812;SDS011;10066;48.108;11.448;2022-09-16T13:48:56;6.13;;;3.57;;
19812;SDS011;10066;48.108;11.448;2022-09-16T13:51:41;3.13;;;2.70;;
19812;SDS011;10066;48.108;11.448;2022-09-16T13:57:17;5.03;;;2.97;;
19812;SDS011;10066;48.108;11.448;2022-09-16T14:00:10;7.20;;;3.50;;
19812;SDS011;10066;48.108;11.448;2022-09-16T14:05:43;5.20;;;3.20;;
19812;SDS011;10066;48.108;11.448;2022-09-16T14:08:21;5.33;;;3.43;;
19812;SDS011;10066;48.108;11.448;2022-09-16T14:10:58;4.80;;;3.10;;
19812;SDS011;10066;48.108;11.448;2022-09-16T14:13:34;7.47;;;3.93;;
19812;SDS011;10066;48.108;11.448;2022-09-16T14:16:08;5.83;;;4.00;;
19812;SDS011;10066;48.108;11.448;2022-09-16T14:18:43;5.27;;;3.93;;
19812;SDS011;10066;48.108;11.448;2022-09-16T14:21:21;8.60;;;3.50;;
19812;SDS011;10066;48.108;11.448;2022-09-16T14:23:50;4.40;;;3.30;;
19812;SDS011;10066;48.108;11.448;2022-09-16T14:26:18;4.10;;;2.83;;
19812;SDS011;10066;48.108;11.448;2022-09-16T14:28:46;3.70;;;2.30;;
19812;SDS011;10066;48.108;11.448;2022-09-16T14:31:14;6.03;;;2.80;;
19812;SDS011;10066;48.108;11.448;2022-09-16T14:33:49;4.17;;;2.60;;
19812;SDS011;10066;48.108;11.448;2022-09-16T14:36:19;4.40;;;3.17;;
19812;SDS011;10066;48.108;11.448;2022-09-16T14:38:59;5.73;;;3.10;;
19812;SDS011;10066;48.108;11.448;2022-09-16T14:41:31;4.30;;;3.13;;
19812;SDS011;10066;48.108;11.448;2022-09-16T14:44:07;5.73;;;3.30;;
19812;SDS011;10066;48.108;11.448;2022-09-16T14:46:40;6.70;;;3.63;;
19812;SDS011;10066;48.108;11.448;2022-09-16T14:49:10;4.20;;;3.67;;
19812;SDS011;10066;48.108;11.448;2022-09-16T14:51:38;6.23;;;3.90;;
19812;SDS011;10066;48.108;11.448;2022-09-16T14:54:16;5.30;;;3.77;;
19812;SDS011;10066;48.108;11.448;2022-09-16T14:56:57;4.20;;;3.60;;
19812;SDS011;10066;48.108;11.448;2022-09-16T14:59:26;5.30;;;3.30;;
19812;SDS011;10066;48.108;11.448;2022-09-16T15:01:58;5.73;;;3.43;;
19812;SDS011;10066;48.108;11.448;2022-09-16T15:04:31;5.27;;;3.70;;
19812;SDS011;10066;48.108;11.448;2022-09-16T15:07:05;6.50;;;3.73;;
19812;SDS011;10066;48.108;11.448;2022-09-16T15:09:36;5.13;;;3.47;;
19812;SDS011;10066;48.108;11.448;2022-09-16T15:12:16;5.27;;;3.67;;
19812;SDS011;10066;48.108;11.448;2022-09-16T15:14:48;5.67;;;3.47;;